Time;durP1;ratioP1;P1;durP2;ratioP2;P2;SDS_P1;SDS_P2;PMS_P1;PMS_P2;Temp;Humidity;BMP_temperature;BMP_pressure;BME280_temperature;BME280_humidity;BME280_pressure;Samples;Min_cycle;Max_cycle;Signal;HPM_P1;HPM_P2
2022/08/30 00:02:19;;;;;;;;;;;19.00;99.90;;;;;;5011145;28;19926;-68
2022/08/30 00:04:48;;;;;;;;;;;19.00;99.90;;;;;;5017781;28;19932;-68
2022/08/30 00:07:15;;;;;;;;;;;19.00;99.90;;;;;;5008367;28;20365;-68
2022/08/30 00:09:42;;;;;;;;;;;19.00;99.90;;;;;;5010545;28;19936;-68
2022/08/30 00:12:09;;;;;;;;;;;19.00;99.90;;;;;;5014191;28;19925;-68
2022/08/30 00:14:36;;;;;;;;;;;19.00;99.90;;;;;;5014270;28;19925;-68
2022/08/30 00:17:03;;;;;;;;;;;19.00;99.90;;;;;;5014151;28;19932;-68
2022/08/30 00:19:30;;;;;;;;;;;19.00;99.90;;;;;;5012031;28;19925;-69
2022/08/30 00:21:58;;;;;;;;;;;19.00;99.90;;;;;;5014274;28;19932;-68
2022/08/30 00:24:25;;;;;;;;;;;19.00;99.90;;;;;;5014193;28;19925;-69
2022/08/30 00:26:52;;;;;;;;;;;19.00;99.90;;;;;;5013619;28;19940;-69
2022/08/30 00:29:19;;;;;;;;;;;19.00;99.90;;;;;;5013437;28;19956;-68
2022/08/30 00:31:46;;;;;;;;;;;19.00;99.90;;;;;;5013789;28;19940;-69
2022/08/30 00:34:13;;;;;;;;;;;19.00;99.90;;;;;;5014152;28;20411;-68
2022/08/30 00:36:39;;;;;;;;;;;19.10;99.90;;;;;;5013597;28;19925;-68
2022/08/30 00:39:08;;;;;;;;;;;19.00;99.90;;;;;;5013710;28;19933;-68
2022/08/30 00:41:35;;;;;;;;;;;19.00;99.90;;;;;;5013672;28;19925;-68
2022/08/30 00:44:03;;;;;;;;;;;19.00;99.90;;;;;;5012579;28;20278;-68
2022/08/30 00:46:31;;;;;;;;;;;18.90;99.90;;;;;;5018662;28;19932;-68
2022/08/30 00:48:59;;;;;;;;;;;18.90;99.90;;;;;;5013973;28;19925;-68
2022/08/30 00:51:26;;;;;;;;;;;18.80;99.90;;;;;;5009264;28;19926;-68
2022/08/30 00:53:54;;;;;;;;;;;18.90;99.90;;;;;;5020163;28;19932;-69
2022/08/30 00:56:24;;;;;;;;;;;18.90;99.90;;;;;;5010995;28;19929;-68
2022/08/30 00:58:54;;;;;;;;;;;18.90;99.90;;;;;;5015920;28;20063;-65
2022/08/30 01:01:21;;;;;;;;;;;18.80;99.90;;;;;;5020817;28;19939;-68
2022/08/30 01:03:48;;;;;;;;;;;18.80;99.90;;;;;;5017472;28;19925;-68
2022/08/30 01:06:16;;;;;;;;;;;18.80;99.90;;;;;;5018287;28;19925;-68
2022/08/30 01:08:43;;;;;;;;;;;18.70;99.90;;;;;;5020883;28;19978;-66
2022/08/30 01:11:11;;;;;;;;;;;18.70;99.90;;;;;;5017161;28;19979;-68
2022/08/30 01:13:39;;;;;;;;;;;18.70;99.90;;;;;;5020313;28;19929;-68
2022/08/30 01:16:06;;;;;;;;;;;18.60;99.90;;;;;;5026346;28;20427;-69
2022/08/30 01:18:33;;;;;;;;;;;18.60;99.90;;;;;;5028779;28;19929;-68
2022/08/30 01:21:06;;;;;;;;;;;18.70;99.90;;;;;;5020968;28;19925;-68
2022/08/30 01:23:34;;;;;;;;;;;18.70;99.90;;;;;;5017207;28;19925;-68
2022/08/30 01:26:02;;;;;;;;;;;18.70;99.90;;;;;;5017028;28;19937;-65
2022/08/30 01:28:29;;;;;;;;;;;18.70;99.90;;;;;;5012434;28;20032;-70
2022/08/30 01:30:56;;;;;;;;;;;18.70;99.90;;;;;;5011448;28;19925;-69
2022/08/30 01:33:23;;;;;;;;;;;18.60;99.90;;;;;;5021696;28;19925;-69
2022/08/30 01:35:52;;;;;;;;;;;18.50;99.90;;;;;;5009889;28;19933;-68
2022/08/30 01:38:19;;;;;;;;;;;18.60;99.90;;;;;;5021624;28;19953;-68
2022/08/30 01:40:48;;;;;;;;;;;18.50;99.90;;;;;;5016525;28;19929;-68
2022/08/30 01:43:15;;;;;;;;;;;18.40;99.90;;;;;;5016855;28;19936;-69
2022/08/30 01:45:42;;;;;;;;;;;18.40;99.90;;;;;;5016821;28;20369;-69
2022/08/30 01:48:11;;;;;;;;;;;18.30;99.90;;;;;;5008469;28;19925;-69
2022/08/30 01:50:38;;;;;;;;;;;18.30;99.90;;;;;;5020192;28;19925;-66
2022/08/30 01:53:05;;;;;;;;;;;18.20;99.90;;;;;;5017781;28;19932;-69
2022/08/30 01:55:32;;;;;;;;;;;18.10;99.90;;;;;;5044059;28;19976;-68
2022/08/30 01:58:01;;;;;;;;;;;18.10;99.90;;;;;;5023977;28;19925;-68
2022/08/30 02:00:28;;;;;;;;;;;18.20;99.90;;;;;;5016346;28;19977;-68
2022/08/30 02:02:56;;;;;;;;;;;18.30;99.90;;;;;;5023047;28;19925;-68
2022/08/30 02:05:23;;;;;;;;;;;18.30;99.90;;;;;;5019211;28;19932;-68
2022/08/30 02:07:50;;;;;;;;;;;18.30;99.90;;;;;;5016899;28;19929;-69
2022/08/30 02:10:17;;;;;;;;;;;18.30;99.90;;;;;;5016787;28;19932;-70
2022/08/30 02:12:44;;;;;;;;;;;18.30;99.90;;;;;;5016136;28;19925;-68
2022/08/30 02:17:41;;;;;;;;;;;18.20;99.90;;;;;;5045787;28;19928;-66
2022/08/30 02:20:09;;;;;;;;;;;18.20;99.90;;;;;;5048731;28;20359;-66
2022/08/30 02:22:36;;;;;;;;;;;18.10;99.90;;;;;;5034444;28;19924;-66
2022/08/30 02:25:03;;;;;;;;;;;18.10;99.90;;;;;;5048956;28;19925;-66
2022/08/30 02:27:30;;;;;;;;;;;18.00;99.90;;;;;;5066203;28;19924;-66
2022/08/30 02:29:57;;;;;;;;;;;18.00;99.90;;;;;;5060654;28;19925;-67
2022/08/30 02:32:24;;;;;;;;;;;18.00;99.90;;;;;;5052286;28;19924;-66
2022/08/30 02:34:53;;;;;;;;;;;18.00;99.90;;;;;;5052366;28;19928;-66
2022/08/30 02:37:20;;;;;;;;;;;18.10;99.90;;;;;;5051837;28;20400;-66
2022/08/30 02:39:47;;;;;;;;;;;18.10;99.90;;;;;;5068189;28;20023;-66
2022/08/30 02:42:14;;;;;;;;;;;18.00;99.90;;;;;;5068663;28;19925;-66
2022/08/30 02:44:40;;;;;;;;;;;18.00;99.90;;;;;;5068593;28;19936;-67
2022/08/30 02:47:07;;;;;;;;;;;18.00;99.90;;;;;;5068608;28;19932;-66
2022/08/30 02:49:34;;;;;;;;;;;18.00;99.90;;;;;;5066345;28;20449;-66
2022/08/30 02:52:03;;;;;;;;;;;18.10;99.90;;;;;;5068764;28;19935;-66
2022/08/30 02:54:31;;;;;;;;;;;18.00;99.90;;;;;;5068863;28;19925;-66
2022/08/30 02:56:59;;;;;;;;;;;17.90;99.90;;;;;;5068013;28;19925;-67
2022/08/30 02:59:25;;;;;;;;;;;17.90;99.90;;;;;;5050166;28;19932;-67
2022/08/30 03:01:52;;;;;;;;;;;17.80;99.90;;;;;;5067428;28;20386;-67
2022/08/30 03:04:19;;;;;;;;;;;17.80;99.90;;;;;;5050255;28;20355;-67
2022/08/30 03:06:46;;;;;;;;;;;17.80;99.90;;;;;;5067240;28;19932;-67
2022/08/30 03:09:14;;;;;;;;;;;17.70;99.90;;;;;;5062016;28;19924;-67
2022/08/30 03:11:41;;;;;;;;;;;17.70;99.90;;;;;;5067019;28;20350;-67
2022/08/30 03:14:08;;;;;;;;;;;17.60;99.90;;;;;;5066733;28;19979;-66
2022/08/30 03:16:34;;;;;;;;;;;17.60;99.90;;;;;;5066950;28;20015;-66
2022/08/30 03:19:01;;;;;;;;;;;17.50;99.90;;;;;;5064463;28;20529;-66
2022/08/30 03:21:28;;;;;;;;;;;17.40;99.90;;;;;;5049537;28;19929;-66
2022/08/30 03:23:55;;;;;;;;;;;17.40;99.90;;;;;;5066208;28;19925;-67
2022/08/30 03:26:23;;;;;;;;;;;17.50;99.90;;;;;;5065715;28;19929;-66
2022/08/30 03:28:50;;;;;;;;;;;17.40;99.90;;;;;;5066093;28;19978;-65
2022/08/30 03:31:16;;;;;;;;;;;17.40;99.90;;;;;;5046804;28;19936;-67
2022/08/30 03:33:43;;;;;;;;;;;17.40;99.90;;;;;;5050495;28;19928;-67
2022/08/30 03:36:10;;;;;;;;;;;17.40;99.90;;;;;;5063978;28;19948;-67
2022/08/30 03:38:38;;;;;;;;;;;17.40;99.90;;;;;;5064923;28;19964;-67
2022/08/30 03:41:05;;;;;;;;;;;17.40;99.90;;;;;;5066359;28;19968;-66
2022/08/30 03:43:33;;;;;;;;;;;17.30;99.90;;;;;;5063075;28;19972;-66
2022/08/30 03:46:00;;;;;;;;;;;17.30;99.90;;;;;;5067488;28;19924;-67
2022/08/30 03:48:27;;;;;;;;;;;17.30;99.90;;;;;;5067538;28;19929;-66
2022/08/30 03:50:54;;;;;;;;;;;17.30;99.90;;;;;;5064367;28;19934;-66
2022/08/30 03:53:21;;;;;;;;;;;17.30;99.90;;;;;;5059112;28;19932;-67
2022/08/30 03:55:48;;;;;;;;;;;17.30;99.90;;;;;;5049725;28;19929;-66
2022/08/30 03:58:15;;;;;;;;;;;17.30;99.90;;;;;;5050474;28;19929;-67
2022/08/30 04:00:43;;;;;;;;;;;17.30;99.90;;;;;;5038696;28;19925;-67
2022/08/30 04:03:09;;;;;;;;;;;17.30;99.90;;;;;;5050765;28;19929;-67
2022/08/30 04:05:36;;;;;;;;;;;17.30;99.90;;;;;;5067401;28;19925;-67
2022/08/30 04:08:03;;;;;;;;;;;17.30;99.90;;;;;;5058418;28;19925;-67
2022/08/30 04:10:30;;;;;;;;;;;17.30;99.90;;;;;;5063664;28;19930;-67
2022/08/30 04:12:57;;;;;;;;;;;17.30;99.90;;;;;;5063433;28;19929;-67
2022/08/30 04:15:24;;;;;;;;;;;17.30;99.90;;;;;;5046839;28;20007;-67
2022/08/30 04:17:53;;;;;;;;;;;17.30;99.90;;;;;;5046040;28;20281;-67
2022/08/30 04:20:20;;;;;;;;;;;17.20;99.90;;;;;;5050620;28;19932;-67
2022/08/30 04:22:47;;;;;;;;;;;17.30;99.90;;;;;;5033853;28;20118;-68
2022/08/30 04:25:14;;;;;;;;;;;17.30;99.90;;;;;;5033698;28;19925;-67
2022/08/30 04:27:40;;;;;;;;;;;17.30;99.90;;;;;;5048288;28;19926;-67
2022/08/30 04:30:07;;;;;;;;;;;17.30;99.90;;;;;;5050324;28;19932;-67
2022/08/30 04:32:34;;;;;;;;;;;17.30;99.90;;;;;;5039272;28;19925;-67
2022/08/30 04:35:03;;;;;;;;;;;17.30;99.90;;;;;;5049589;28;19931;-67
2022/08/30 04:37:30;;;;;;;;;;;17.20;99.90;;;;;;5052624;28;19925;-67
2022/08/30 04:39:59;;;;;;;;;;;17.20;99.90;;;;;;5036777;28;19928;-66
2022/08/30 04:42:26;;;;;;;;;;;17.10;99.90;;;;;;5053601;28;19932;-67
2022/08/30 04:44:53;;;;;;;;;;;17.20;99.90;;;;;;5053205;28;20350;-67
2022/08/30 04:47:20;;;;;;;;;;;17.20;99.90;;;;;;5053195;28;19928;-67
2022/08/30 04:49:47;;;;;;;;;;;17.20;99.90;;;;;;5036169;28;19928;-67
2022/08/30 04:52:15;;;;;;;;;;;17.10;99.90;;;;;;5052676;28;19924;-67
2022/08/30 04:54:42;;;;;;;;;;;17.10;99.90;;;;;;5050845;28;19929;-68
2022/08/30 04:57:08;;;;;;;;;;;17.00;99.90;;;;;;5052765;28;20338;-67
2022/08/30 04:59:35;;;;;;;;;;;17.00;99.90;;;;;;5034914;28;19932;-66
2022/08/30 05:02:02;;;;;;;;;;;17.00;99.90;;;;;;5046731;28;19928;-67
2022/08/30 05:04:29;;;;;;;;;;;17.00;99.90;;;;;;5035516;28;19925;-66
2022/08/30 05:06:55;;;;;;;;;;;17.00;99.90;;;;;;5051993;28;19952;-67
2022/08/30 05:09:24;;;;;;;;;;;17.10;99.90;;;;;;5049593;28;19932;-66
2022/08/30 05:11:51;;;;;;;;;;;17.10;99.90;;;;;;5035362;28;19983;-66
2022/08/30 05:14:17;;;;;;;;;;;17.10;99.90;;;;;;5037630;28;19924;-66
2022/08/30 05:16:45;;;;;;;;;;;17.10;99.90;;;;;;5042909;28;19983;-66
2022/08/30 05:19:11;;;;;;;;;;;17.10;99.90;;;;;;5052580;28;20384;-66
2022/08/30 05:21:39;;;;;;;;;;;17.00;99.90;;;;;;5068844;28;20327;-67
2022/08/30 05:24:06;;;;;;;;;;;17.10;99.90;;;;;;5054705;28;20017;-66
2022/08/30 05:26:37;;;;;;;;;;;17.10;99.90;;;;;;5066269;28;19928;-67
2022/08/30 05:29:03;;;;;;;;;;;17.30;99.90;;;;;;5047988;28;19929;-66
2022/08/30 05:31:32;;;;;;;;;;;17.40;99.90;;;;;;5064787;28;19924;-66
2022/08/30 05:33:58;;;;;;;;;;;17.50;99.90;;;;;;5064841;28;19925;-66
2022/08/30 05:36:27;;;;;;;;;;;17.60;99.90;;;;;;5068042;28;20513;-65
2022/08/30 05:38:54;;;;;;;;;;;17.70;99.90;;;;;;5054884;28;19979;-73
2022/08/30 05:41:21;;;;;;;;;;;17.80;99.90;;;;;;5051452;28;20354;-66
2022/08/30 05:43:52;;;;;;;;;;;17.80;99.90;;;;;;5051970;28;19925;-66
2022/08/30 05:46:20;;;;;;;;;;;17.80;99.90;;;;;;5071631;28;19971;-67
2022/08/30 05:48:47;;;;;;;;;;;17.80;99.90;;;;;;5049742;28;19924;-66
2022/08/30 05:51:16;;;;;;;;;;;17.80;99.90;;;;;;5054109;28;19928;-66
2022/08/30 05:53:43;;;;;;;;;;;17.80;99.90;;;;;;5067782;28;19960;-66
2022/08/30 05:56:12;;;;;;;;;;;17.80;99.90;;;;;;5052940;28;19924;-65
2022/08/30 05:58:39;;;;;;;;;;;17.80;99.90;;;;;;5047707;28;19932;-66
2022/08/30 06:01:07;;;;;;;;;;;17.80;99.90;;;;;;5065043;28;19929;-66
2022/08/30 06:03:34;;;;;;;;;;;17.80;99.90;;;;;;5067663;28;20404;-66
2022/08/30 06:06:02;;;;;;;;;;;17.80;99.90;;;;;;5067739;28;19928;-66
2022/08/30 06:08:29;;;;;;;;;;;17.80;99.90;;;;;;5053110;28;19931;-67
2022/08/30 06:10:56;;;;;;;;;;;17.90;99.90;;;;;;5046393;28;19933;-65
2022/08/30 06:13:22;;;;;;;;;;;17.90;99.90;;;;;;5045216;28;19925;-67
2022/08/30 06:15:51;;;;;;;;;;;18.10;99.90;;;;;;5067364;28;19925;-67
2022/08/30 06:18:19;;;;;;;;;;;18.10;99.90;;;;;;5047033;28;19925;-66
2022/08/30 06:20:47;;;;;;;;;;;18.20;99.90;;;;;;5049134;28;19928;-66
2022/08/30 06:23:16;;;;;;;;;;;18.20;99.90;;;;;;5049182;28;20432;-66
2022/08/30 06:25:43;;;;;;;;;;;18.30;99.90;;;;;;5060787;28;19964;-66
2022/08/30 06:28:11;;;;;;;;;;;18.40;99.90;;;;;;5066060;28;20355;-67
2022/08/30 06:30:39;;;;;;;;;;;18.50;99.90;;;;;;5047902;28;19932;-67
2022/08/30 06:33:06;;;;;;;;;;;18.50;99.90;;;;;;5048796;28;19972;-67
2022/08/30 06:35:34;;;;;;;;;;;18.50;99.90;;;;;;5062700;28;20344;-67
2022/08/30 06:38:01;;;;;;;;;;;18.50;99.90;;;;;;5063929;28;19925;-66
2022/08/30 06:40:28;;;;;;;;;;;18.60;99.90;;;;;;5050120;28;19979;-66
2022/08/30 06:42:55;;;;;;;;;;;18.60;99.90;;;;;;5049431;28;19940;-66
2022/08/30 06:45:22;;;;;;;;;;;18.70;99.90;;;;;;5064523;28;19929;-67
2022/08/30 06:47:48;;;;;;;;;;;18.80;99.90;;;;;;5047713;28;20319;-66
2022/08/30 06:50:16;;;;;;;;;;;18.90;99.90;;;;;;5053373;28;19925;-67
2022/08/30 06:52:45;;;;;;;;;;;18.90;99.90;;;;;;5051523;28;20329;-68
2022/08/30 06:55:13;;;;;;;;;;;19.00;99.90;;;;;;5046782;28;19928;-68
2022/08/30 06:57:40;;;;;;;;;;;19.10;99.90;;;;;;5066566;28;20380;-68
2022/08/30 07:00:08;;;;;;;;;;;19.10;99.90;;;;;;5062753;28;19925;-67
2022/08/30 07:02:37;;;;;;;;;;;19.20;99.90;;;;;;5044947;28;20449;-68
2022/08/30 07:05:05;;;;;;;;;;;19.30;99.90;;;;;;5063547;28;20027;-67
2022/08/30 07:07:31;;;;;;;;;;;19.40;99.90;;;;;;5066373;28;19987;-68
2022/08/30 07:10:02;;;;;;;;;;;19.50;99.90;;;;;;5067504;28;19929;-67
2022/08/30 07:12:28;;;;;;;;;;;19.70;99.90;;;;;;5060478;28;19932;-68
2022/08/30 07:14:55;;;;;;;;;;;19.80;99.90;;;;;;5050212;28;19933;-67
2022/08/30 07:20:07;;;;;;;;;;;20.10;99.90;;;;;;5066386;28;20502;-68
2022/08/30 07:22:34;;;;;;;;;;;20.40;99.90;;;;;;5066764;28;19924;-68
2022/08/30 07:25:02;;;;;;;;;;;20.50;99.90;;;;;;5050191;28;19924;-68
2022/08/30 07:27:29;;;;;;;;;;;20.70;99.90;;;;;;5065165;28;19925;-67
2022/08/30 07:29:57;;;;;;;;;;;20.90;99.90;;;;;;5063281;28;19929;-67
2022/08/30 07:32:24;;;;;;;;;;;20.90;99.90;;;;;;5049569;28;20016;-67
2022/08/30 07:34:51;;;;;;;;;;;21.00;99.90;;;;;;5066936;28;20358;-69
2022/08/30 07:37:18;;;;;;;;;;;21.10;99.90;;;;;;5066462;28;19925;-67
2022/08/30 07:39:44;;;;;;;;;;;21.10;99.90;;;;;;5049233;28;20024;-67
2022/08/30 07:42:13;;;;;;;;;;;21.10;99.90;;;;;;5066409;28;19925;-67
2022/08/30 07:44:39;;;;;;;;;;;21.20;99.90;;;;;;5066260;28;20389;-68
2022/08/30 07:47:06;;;;;;;;;;;21.20;99.90;;;;;;5066427;28;19933;-67
2022/08/30 07:49:33;;;;;;;;;;;21.30;99.90;;;;;;5065978;28;20456;-67
2022/08/30 07:52:00;;;;;;;;;;;21.40;99.90;;;;;;5062709;28;19929;-67
2022/08/30 07:54:27;;;;;;;;;;;21.40;99.90;;;;;;5049628;28;19928;-67
2022/08/30 07:56:54;;;;;;;;;;;21.50;99.90;;;;;;5066105;28;19925;-68
2022/08/30 07:59:22;;;;;;;;;;;21.60;99.90;;;;;;5065393;28;19925;-67
2022/08/30 08:01:49;;;;;;;;;;;21.70;99.90;;;;;;5049435;28;19929;-67
2022/08/30 08:04:16;;;;;;;;;;;21.80;99.90;;;;;;5067939;28;19929;-68
2022/08/30 08:06:44;;;;;;;;;;;22.00;99.90;;;;;;5066406;28;19932;-68
2022/08/30 08:09:11;;;;;;;;;;;22.10;99.90;;;;;;5064490;28;20387;-67
2022/08/30 08:11:39;;;;;;;;;;;22.30;99.90;;;;;;5065339;28;19925;-68
2022/08/30 08:14:06;;;;;;;;;;;22.50;99.90;;;;;;5067020;28;19964;-68
2022/08/30 08:16:35;;;;;;;;;;;22.70;99.90;;;;;;5066164;28;19925;-67
2022/08/30 08:19:02;;;;;;;;;;;22.80;99.90;;;;;;5065217;28;19932;-67
2022/08/30 08:21:29;;;;;;;;;;;22.90;99.90;;;;;;5048917;28;19967;-67
2022/08/30 08:23:56;;;;;;;;;;;23.00;99.90;;;;;;5065338;28;19932;-68
2022/08/30 08:26:23;;;;;;;;;;;23.20;99.90;;;;;;5046328;28;19925;-67
2022/08/30 08:28:49;;;;;;;;;;;23.40;99.90;;;;;;5050109;28;20465;-67
2022/08/30 08:31:17;;;;;;;;;;;23.50;99.90;;;;;;5060711;28;20360;-67
2022/08/30 08:33:45;;;;;;;;;;;23.60;99.90;;;;;;5065150;28;20339;-67
2022/08/30 08:36:12;;;;;;;;;;;23.60;99.90;;;;;;5050391;28;19929;-67
2022/08/30 08:38:39;;;;;;;;;;;23.80;99.90;;;;;;5066808;28;19946;-67
2022/08/30 08:41:09;;;;;;;;;;;24.00;99.90;;;;;;5049314;28;19925;-67
2022/08/30 08:43:37;;;;;;;;;;;24.20;99.90;;;;;;5050285;28;19925;-68
2022/08/30 08:46:05;;;;;;;;;;;24.40;99.90;;;;;;5066822;28;19932;-68
2022/08/30 08:48:34;;;;;;;;;;;24.50;99.90;;;;;;5049727;28;19925;-68
2022/08/30 08:53:50;;;;;;;;;;;24.50;99.90;;;;;;5040713;28;19933;-67
2022/08/30 08:56:18;;;;;;;;;;;24.50;99.90;;;;;;5047873;28;19936;-67
2022/08/30 08:58:45;;;;;;;;;;;24.60;99.90;;;;;;5068202;28;19932;-68
2022/08/30 09:01:14;;;;;;;;;;;24.80;99.90;;;;;;5047794;28;19925;-68
2022/08/30 09:03:41;;;;;;;;;;;24.90;99.90;;;;;;5049915;28;19944;-67
2022/08/30 09:06:15;;;;;;;;;;;24.90;99.90;;;;;;5072393;28;19932;-67
2022/08/30 09:08:42;;;;;;;;;;;25.00;99.90;;;;;;5077008;28;20351;-67
2022/08/30 09:11:15;;;;;;;;;;;25.10;99.90;;;;;;5066451;28;19925;-67
2022/08/30 09:13:42;;;;;;;;;;;25.10;99.90;;;;;;5049439;28;19925;-67
2022/08/30 09:16:09;;;;;;;;;;;25.00;99.90;;;;;;5039618;28;19955;-68
2022/08/30 09:18:43;;;;;;;;;;;24.90;99.90;;;;;;5061019;28;19928;-67
2022/08/30 09:21:12;;;;;;;;;;;24.80;99.90;;;;;;5058619;28;19939;-67
2022/08/30 09:23:47;;;;;;;;;;;24.80;99.90;;;;;;5065024;28;19932;-67
2022/08/30 09:26:14;;;;;;;;;;;25.00;99.90;;;;;;5066042;28;19929;-68
2022/08/30 09:28:44;;;;;;;;;;;25.20;99.90;;;;;;5064283;28;20389;-67
2022/08/30 09:31:18;;;;;;;;;;;25.40;99.90;;;;;;5056620;28;19940;-67
2022/08/30 09:33:53;;;;;;;;;;;25.60;99.90;;;;;;5068470;28;19929;-67
2022/08/30 09:36:25;;;;;;;;;;;25.80;99.90;;;;;;5058551;28;20343;-68
2022/08/30 09:38:56;;;;;;;;;;;26.00;99.90;;;;;;5065028;28;20000;-67
2022/08/30 09:41:28;;;;;;;;;;;26.30;99.90;;;;;;5068337;28;20408;-67
2022/08/30 09:44:06;;;;;;;;;;;26.50;99.90;;;;;;5067566;28;19929;-67
2022/08/30 09:46:33;;;;;;;;;;;26.70;99.90;;;;;;5064080;28;19928;-67
2022/08/30 09:49:00;;;;;;;;;;;26.60;99.90;;;;;;5066239;28;19929;-67
2022/08/30 09:51:40;;;;;;;;;;;26.60;99.90;;;;;;5068278;28;19924;-67
2022/08/30 09:54:12;;;;;;;;;;;26.70;99.90;;;;;;5065510;28;19925;-68
2022/08/30 09:56:43;;;;;;;;;;;26.80;99.90;;;;;;5066363;28;19925;-67
2022/08/30 09:59:15;;;;;;;;;;;26.80;99.90;;;;;;5066403;28;20027;-68
2022/08/30 10:01:44;;;;;;;;;;;26.80;99.90;;;;;;5068201;28;19929;-67
2022/08/30 10:04:17;;;;;;;;;;;27.10;99.90;;;;;;5059531;28;19933;-67
2022/08/30 10:06:49;;;;;;;;;;;27.30;99.90;;;;;;5049123;28;19925;-67
2022/08/30 10:09:19;;;;;;;;;;;27.50;99.90;;;;;;5065236;28;19978;-67
2022/08/30 10:11:51;;;;;;;;;;;27.60;99.90;;;;;;5069288;28;19925;-68
2022/08/30 10:14:36;;;;;;;;;;;27.70;99.90;;;;;;5069090;28;19929;-68
2022/08/30 10:17:06;;;;;;;;;;;27.50;99.90;;;;;;5045369;28;19929;-68
2022/08/30 10:19:40;;;;;;;;;;;27.40;99.90;;;;;;5068451;28;19975;-68
2022/08/30 10:22:12;;;;;;;;;;;27.30;99.90;;;;;;5063514;28;19929;-68
2022/08/30 10:24:40;;;;;;;;;;;27.30;99.90;;;;;;5068399;28;19929;-68
2022/08/30 10:27:09;;;;;;;;;;;27.30;99.90;;;;;;5068762;28;19925;-68
2022/08/30 10:29:39;;;;;;;;;;;27.20;99.90;;;;;;5068672;28;19971;-69
2022/08/30 10:32:10;;;;;;;;;;;27.40;99.90;;;;;;5069025;28;20053;-68
2022/08/30 10:34:39;;;;;;;;;;;27.60;99.90;;;;;;5051692;28;19924;-69
2022/08/30 10:37:08;;;;;;;;;;;27.90;99.90;;;;;;5063566;28;19925;-69
2022/08/30 10:39:40;;;;;;;;;;;28.20;99.90;;;;;;5042125;28;19968;-68
2022/08/30 10:42:10;;;;;;;;;;;28.20;99.90;;;;;;5068538;28;19932;-68
2022/08/30 10:44:41;;;;;;;;;;;28.00;99.90;;;;;;5051194;28;20702;-69
2022/08/30 10:47:14;;;;;;;;;;;28.10;99.90;;;;;;5061929;28;19925;-68
2022/08/30 10:49:43;;;;;;;;;;;28.20;99.90;;;;;;5071681;28;19924;-69
2022/08/30 10:52:19;;;;;;;;;;;28.50;99.90;;;;;;5058646;28;19978;-68
2022/08/30 10:54:50;;;;;;;;;;;28.70;99.90;;;;;;5050460;28;19936;-68
2022/08/30 10:57:17;;;;;;;;;;;28.80;99.90;;;;;;5074294;28;20301;-69
2022/08/30 10:59:46;;;;;;;;;;;29.10;99.90;;;;;;5064986;28;20015;-68
2022/08/30 11:02:20;;;;;;;;;;;29.30;99.90;;;;;;5057421;28;19982;-70
2022/08/30 11:04:57;;;;;;;;;;;29.10;99.90;;;;;;5057834;28;20370;-68
2022/08/30 11:07:28;;;;;;;;;;;29.50;99.90;;;;;;5049079;28;19928;-68
2022/08/30 11:10:09;;;;;;;;;;;29.80;99.90;;;;;;5049746;28;19924;-68
2022/08/30 11:12:38;;;;;;;;;;;29.90;99.90;;;;;;5058171;28;19924;-68
2022/08/30 11:15:13;;;;;;;;;;;29.70;99.90;;;;;;5046360;28;19965;-68
2022/08/30 11:17:42;;;;;;;;;;;29.90;99.90;;;;;;5030305;28;19940;-68
2022/08/30 11:20:21;;;;;;;;;;;30.00;99.90;;;;;;5013298;28;19978;-69
2022/08/30 11:23:02;;;;;;;;;;;30.30;99.90;;;;;;5013251;28;19971;-69
2022/08/30 11:25:44;;;;;;;;;;;30.30;99.90;;;;;;5029060;28;19929;-69
2022/08/30 11:28:32;;;;;;;;;;;30.40;99.90;;;;;;5012536;28;19929;-70
2022/08/30 11:31:06;;;;;;;;;;;30.80;99.90;;;;;;5030218;28;19929;-69
2022/08/30 11:33:46;;;;;;;;;;;33.40;99.90;;;;;;5013582;28;19932;-69
2022/08/30 11:36:28;;;;;;;;;;;35.60;99.20;;;;;;5016156;28;19932;-69
2022/08/30 11:39:01;;;;;;;;;;;36.70;98.40;;;;;;5011477;28;19925;-69
2022/08/30 11:41:31;;;;;;;;;;;38.60;97.20;;;;;;5019455;28;19925;-69
2022/08/30 11:44:13;;;;;;;;;;;38.40;95.00;;;;;;5012438;28;20447;-70
2022/08/30 11:46:40;;;;;;;;;;;39.10;94.40;;;;;;5013071;28;19944;-69
2022/08/30 11:49:22;;;;;;;;;;;39.20;94.00;;;;;;5026342;28;20420;-70
2022/08/30 11:52:09;;;;;;;;;;;39.30;94.30;;;;;;5014894;28;20368;-70
2022/08/30 11:54:40;;;;;;;;;;;39.70;93.80;;;;;;5026071;28;19925;-70
2022/08/30 11:57:13;;;;;;;;;;;40.50;93.80;;;;;;5013638;28;20288;-70
2022/08/30 11:59:47;;;;;;;;;;;41.70;92.30;;;;;;5029982;28;19933;-70
2022/08/30 12:02:29;;;;;;;;;;;42.20;92.00;;;;;;5030236;28;20393;-70
2022/08/30 12:04:55;;;;;;;;;;;41.70;90.70;;;;;;5012982;28;20335;-68
2022/08/30 12:07:37;;;;;;;;;;;40.70;91.00;;;;;;5030319;28;19925;-69
2022/08/30 12:10:06;;;;;;;;;;;41.50;91.10;;;;;;5006824;28;19925;-68
2022/08/30 12:12:52;;;;;;;;;;;41.30;91.50;;;;;;5030354;28;19929;-69
2022/08/30 12:15:34;;;;;;;;;;;41.70;90.10;;;;;;5030775;28;19925;-68
2022/08/30 12:20:48;;;;;;;;;;;41.20;89.90;;;;;;5049958;28;19924;-69
2022/08/30 12:23:17;;;;;;;;;;;40.60;90.00;;;;;;5046463;28;19959;-69
2022/08/30 12:25:44;;;;;;;;;;;39.70;90.30;;;;;;5050305;28;19933;-69
2022/08/30 12:28:13;;;;;;;;;;;39.80;91.00;;;;;;5028356;28;20404;-69
2022/08/30 12:30:40;;;;;;;;;;;41.20;90.80;;;;;;5031276;28;19925;-69
2022/08/30 12:33:11;;;;;;;;;;;42.20;89.50;;;;;;5033872;28;19925;-69
2022/08/30 12:35:38;;;;;;;;;;;42.60;88.30;;;;;;5047629;28;19931;-69
2022/08/30 12:38:06;;;;;;;;;;;42.00;89.30;;;;;;5050300;28;19928;-69
2022/08/30 12:40:33;;;;;;;;;;;42.00;89.00;;;;;;5049656;28;19929;-69
2022/08/30 12:43:03;;;;;;;;;;;41.60;88.10;;;;;;5050607;28;19929;-69
2022/08/30 12:45:32;;;;;;;;;;;42.00;89.20;;;;;;5037225;28;20548;-69
2022/08/30 12:48:00;;;;;;;;;;;41.60;89.10;;;;;;5051546;28;20281;-69
2022/08/30 12:50:29;;;;;;;;;;;40.90;89.30;;;;;;5034238;28;19978;-69
2022/08/30 12:52:58;;;;;;;;;;;41.00;89.00;;;;;;5048711;28;19974;-70
2022/08/30 12:55:26;;;;;;;;;;;41.30;88.90;;;;;;5035459;28;19928;-69
2022/08/30 12:57:57;;;;;;;;;;;41.30;89.80;;;;;;5039893;28;19947;-68
2022/08/30 13:00:25;;;;;;;;;;;40.90;90.00;;;;;;5035939;28;19974;-70
2022/08/30 13:02:53;;;;;;;;;;;40.30;90.00;;;;;;5036965;28;19970;-70
2022/08/30 13:05:33;;;;;;;;;;;39.90;90.30;;;;;;5053397;28;19925;-69
2022/08/30 13:08:14;;;;;;;;;;;40.00;90.00;;;;;;5032940;28;20389;-69
2022/08/30 13:10:49;;;;;;;;;;;41.50;90.00;;;;;;5034458;28;19929;-69
2022/08/30 13:13:27;;;;;;;;;;;41.30;90.00;;;;;;5037104;28;19947;-69
2022/08/30 13:15:53;;;;;;;;;;;41.50;90.10;;;;;;5055250;28;19932;-70
2022/08/30 13:18:28;;;;;;;;;;;40.60;90.00;;;;;;5042609;28;19925;-70
2022/08/30 13:21:19;;;;;;;;;;;39.50;89.80;;;;;;5069721;28;20315;-69
2022/08/30 13:23:45;;;;;;;;;;;39.10;90.20;;;;;;5053274;28;19929;-70
2022/08/30 13:26:12;;;;;;;;;;;39.00;90.30;;;;;;5066187;28;19933;-69
2022/08/30 13:28:43;;;;;;;;;;;39.20;90.30;;;;;;5069855;28;20297;-69
2022/08/30 13:31:10;;;;;;;;;;;39.50;90.70;;;;;;5069958;28;20364;-70
2022/08/30 13:33:37;;;;;;;;;;;40.60;89.10;;;;;;5069749;28;19978;-70
2022/08/30 13:36:04;;;;;;;;;;;40.70;88.90;;;;;;5069926;28;19925;-70
2022/08/30 13:38:32;;;;;;;;;;;40.30;90.10;;;;;;5066560;28;20439;-70
2022/08/30 13:40:59;;;;;;;;;;;40.40;90.00;;;;;;5052897;28;20465;-70
2022/08/30 13:43:25;;;;;;;;;;;40.00;90.10;;;;;;5069881;28;20292;-70
2022/08/30 13:45:52;;;;;;;;;;;39.00;90.20;;;;;;5069928;28;19929;-71
2022/08/30 13:48:19;;;;;;;;;;;38.20;90.40;;;;;;5051241;28;19925;-70
2022/08/30 13:50:46;;;;;;;;;;;37.60;90.60;;;;;;5069684;28;19932;-69
2022/08/30 13:53:12;;;;;;;;;;;36.90;91.30;;;;;;5066273;28;19932;-68
2022/08/30 13:55:41;;;;;;;;;;;36.80;91.10;;;;;;5053954;28;19929;-68
2022/08/30 13:58:08;;;;;;;;;;;37.20;91.00;;;;;;5052509;28;19928;-69
2022/08/30 14:00:36;;;;;;;;;;;37.00;91.00;;;;;;5052437;28;19925;-70
2022/08/30 14:03:03;;;;;;;;;;;36.90;91.20;;;;;;5066751;28;19925;-69
2022/08/30 14:05:31;;;;;;;;;;;36.80;91.30;;;;;;5069356;28;19967;-69
2022/08/30 14:07:58;;;;;;;;;;;36.70;91.30;;;;;;5052397;28;20449;-70
2022/08/30 14:10:26;;;;;;;;;;;36.90;91.40;;;;;;5068192;28;19925;-70
2022/08/30 14:12:54;;;;;;;;;;;37.60;91.50;;;;;;5045277;28;19932;-71
2022/08/30 14:15:21;;;;;;;;;;;38.10;90.90;;;;;;5052306;28;19924;-69
2022/08/30 14:17:47;;;;;;;;;;;38.60;91.00;;;;;;5045967;22;20396;-74
2022/08/30 14:20:14;;;;;;;;;;;39.30;90.70;;;;;;5026068;28;19975;-74
2022/08/30 14:22:41;;;;;;;;;;;39.60;90.20;;;;;;5027531;28;19929;-73
2022/08/30 14:25:08;;;;;;;;;;;38.20;90.60;;;;;;5024329;28;19959;-74
2022/08/30 14:27:34;;;;;;;;;;;37.60;91.10;;;;;;5047602;28;19983;-72
2022/08/30 14:30:04;;;;;;;;;;;37.10;90.80;;;;;;5051990;28;19932;-72
2022/08/30 14:32:31;;;;;;;;;;;37.10;91.20;;;;;;5040279;28;19928;-73
2022/08/30 14:34:57;;;;;;;;;;;37.70;91.80;;;;;;5047555;28;20020;-72
2022/08/30 14:37:24;;;;;;;;;;;38.20;90.80;;;;;;5044668;28;19925;-72